Time;durP1;ratioP1;P1;durP2;ratioP2;P2;SDS_P1;SDS_P2;PMS_P1;PMS_P2;Temp;Humidity;BMP_temperature;BMP_pressure;BME280_temperature;BME280_humidity;BME280_pressure;Samples;Min_cycle;Max_cycle;Signal;HPM_P1;HPM_P2
2021/11/13 00:01:04;;;;;;;3.27;2.10;;;;;;;-0.38;77.79;96151.47;1826294;78;21006;-69
2021/11/13 00:03:30;;;;;;;6.07;2.30;;;;;;;-0.43;77.55;96146.55;1825951;78;21013;-70
2021/11/13 00:05:57;;;;;;;3.33;1.70;;;;;;;-0.49;77.26;96145.08;1820791;78;20983;-70
2021/11/13 00:08:23;;;;;;;3.00;1.90;;;;;;;-0.55;77.34;96148.77;1825770;79;21125;-70
2021/11/13 00:10:52;;;;;;;3.30;1.73;;;;;;;-0.62;77.58;96151.98;1825949;78;21029;-70
2021/11/13 00:13:21;;;;;;;4.03;2.30;;;;;;;-0.71;77.54;96160.31;1826226;78;21094;-70
2021/11/13 00:15:48;;;;;;;3.57;2.03;;;;;;;-0.71;77.96;96154.72;1825854;78;21010;-69
2021/11/13 00:18:15;;;;;;;4.07;1.97;;;;;;;-0.69;78.08;96150.89;1826135;78;21041;-69
2021/11/13 00:20:43;;;;;;;2.90;1.90;;;;;;;-0.67;78.31;96147.95;1825953;78;21026;-69
2021/11/13 00:23:10;;;;;;;5.37;2.50;;;;;;;-0.60;78.24;96146.03;1825818;78;21117;-69
2021/11/13 00:25:37;;;;;;;3.37;1.67;;;;;;;-0.54;77.89;96146.63;1826180;78;20935;-69
2021/11/13 00:28:04;;;;;;;4.03;2.03;;;;;;;-0.60;77.52;96144.73;1826293;78;21002;-69
2021/11/13 00:30:30;;;;;;;4.47;2.47;;;;;;;-0.66;77.62;96149.30;1826242;78;21037;-69
2021/11/13 00:32:57;;;;;;;6.13;2.80;;;;;;;-0.68;78.07;96144.86;1826087;78;21006;-69
2021/11/13 00:35:24;;;;;;;4.27;2.20;;;;;;;-0.63;78.51;96143.34;1826306;78;20988;-69
2021/11/13 00:37:50;;;;;;;4.07;2.50;;;;;;;-0.59;78.21;96141.72;1825802;78;21543;-69
2021/11/13 00:40:20;;;;;;;3.67;1.90;;;;;;;-0.53;78.34;96145.80;1826261;78;21033;-69
2021/11/13 00:42:48;;;;;;;6.13;2.80;;;;;;;-0.48;78.11;96152.91;1826184;78;20998;-69
2021/11/13 00:45:15;;;;;;;2.60;1.60;;;;;;;-0.42;78.09;96152.64;1826216;78;21543;-69
2021/11/13 00:47:43;;;;;;;3.13;1.90;;;;;;;-0.38;77.88;96151.89;1826122;78;21049;-69
2021/11/13 00:50:12;;;;;;;3.90;2.13;;;;;;;-0.60;77.33;96155.52;1826266;78;21026;-69
2021/11/13 00:52:38;;;;;;;6.13;2.50;;;;;;;-0.76;77.50;96152.38;1826116;78;21488;-69
2021/11/13 00:55:07;;;;;;;3.60;1.97;;;;;;;-0.77;77.83;96154.95;1826347;78;20994;-67
2021/11/13 00:57:34;;;;;;;2.93;1.77;;;;;;;-0.71;78.06;96148.66;1826013;78;21022;-69
2021/11/13 01:00:04;;;;;;;4.47;1.87;;;;;;;-0.76;78.71;96144.61;1826081;78;21014;-69
2021/11/13 01:02:31;;;;;;;3.20;1.70;;;;;;;-0.93;78.25;96139.30;1825881;78;21033;-69
2021/11/13 01:04:57;;;;;;;4.83;1.97;;;;;;;-0.91;78.72;96142.80;1826172;78;20995;-69
2021/11/13 01:07:24;;;;;;;2.60;1.53;;;;;;;-0.87;78.59;96143.38;1826308;78;20974;-69
2021/11/13 01:09:51;;;;;;;2.27;1.67;;;;;;;-0.85;78.40;96143.45;1826263;78;20971;-69
2021/11/13 01:12:17;;;;;;;5.30;2.23;;;;;;;-0.91;78.32;96133.73;1826004;78;20998;-69
2021/11/13 01:14:44;;;;;;;3.80;2.00;;;;;;;-0.84;78.52;96137.42;1825910;78;21104;-69
2021/11/13 01:17:14;;;;;;;3.47;1.30;;;;;;;-0.77;78.55;96128.61;1825841;78;21038;-69
2021/11/13 01:19:45;;;;;;;4.23;1.97;;;;;;;-0.75;78.57;96126.96;1826201;78;21018;-69
2021/11/13 01:22:14;;;;;;;4.37;1.80;;;;;;;-0.86;78.45;96134.77;1826315;78;21014;-69
2021/11/13 01:24:41;;;;;;;2.70;1.80;;;;;;;-0.84;78.66;96135.70;1826462;78;21005;-70
2021/11/13 01:27:08;;;;;;;4.10;2.03;;;;;;;-0.78;78.87;96139.82;1825898;78;21014;-69
2021/11/13 01:29:35;;;;;;;2.53;1.70;;;;;;;-0.73;78.84;96126.60;1826247;78;20990;-69
2021/11/13 01:32:03;;;;;;;4.30;1.63;;;;;;;-0.84;78.51;96131.82;1826106;78;21057;-69
2021/11/13 01:34:30;;;;;;;3.67;2.10;;;;;;;-0.94;78.57;96128.45;1826550;78;21010;-70
2021/11/13 01:36:57;;;;;;;3.47;1.77;;;;;;;-0.89;78.99;96121.30;1826206;78;21014;-69
2021/11/13 01:39:23;;;;;;;3.27;1.60;;;;;;;-0.94;78.69;96124.15;1825909;78;21049;-69
2021/11/13 01:41:50;;;;;;;2.40;1.40;;;;;;;-0.88;78.85;96120.91;1825777;78;21002;-69
2021/11/13 01:44:17;;;;;;;3.03;1.97;;;;;;;-0.87;78.79;96126.55;1825897;78;21090;-69
2021/11/13 01:46:43;;;;;;;3.60;1.93;;;;;;;-0.95;78.65;96117.64;1826438;78;21028;-70
2021/11/13 01:49:10;;;;;;;3.50;1.73;;;;;;;-0.89;78.91;96117.83;1825794;78;21054;-69
2021/11/13 01:51:37;;;;;;;3.00;1.87;;;;;;;-0.82;78.93;96109.44;1826144;78;21010;-70
2021/11/13 01:54:07;;;;;;;2.90;1.70;;;;;;;-0.84;78.94;96115.41;1825763;78;21089;-69
2021/11/13 01:56:38;;;;;;;5.37;1.57;;;;;;;-0.96;78.32;96114.56;1826041;78;21009;-69
2021/11/13 01:59:06;;;;;;;3.60;2.10;;;;;;;-1.12;78.48;96110.16;1826446;78;20999;-69
2021/11/13 02:01:35;;;;;;;4.60;2.00;;;;;;;-1.15;79.00;96109.19;1826217;78;20954;-69
2021/11/13 02:04:03;;;;;;;2.63;1.70;;;;;;;-1.13;79.19;96110.12;1826131;78;21488;-70
2021/11/13 02:06:34;;;;;;;3.20;2.00;;;;;;;-1.06;79.07;96112.49;1826163;78;21022;-70
2021/11/13 02:09:00;;;;;;;2.17;1.57;;;;;;;-1.09;78.78;96104.20;1826122;78;20998;-69
2021/11/13 02:11:27;;;;;;;4.20;2.53;;;;;;;-1.06;78.98;96104.30;1826099;78;20993;-70
2021/11/13 02:13:56;;;;;;;3.33;2.23;;;;;;;-0.98;79.25;96107.19;1825338;78;21015;-70
2021/11/13 02:16:23;;;;;;;4.20;2.10;;;;;;;-1.03;79.30;96106.12;1827087;78;21060;-69
2021/11/13 02:18:50;;;;;;;4.33;2.63;;;;;;;-0.99;79.63;96101.52;1831882;78;21022;-69
2021/11/13 02:21:17;;;;;;;2.97;2.07;;;;;;;-0.95;79.24;96096.50;1831874;78;20997;-70
2021/11/13 02:23:44;;;;;;;3.90;2.00;;;;;;;-0.90;79.10;96086.30;1831714;78;21523;-69
2021/11/13 02:26:12;;;;;;;2.37;1.30;;;;;;;-0.84;79.10;96086.91;1832027;78;20982;-69
2021/11/13 02:28:39;;;;;;;3.27;1.90;;;;;;;-0.93;78.61;96080.59;1832372;78;21013;-69
2021/11/13 02:31:09;;;;;;;2.73;1.53;;;;;;;-1.02;78.66;96089.77;1831729;78;21009;-69
2021/11/13 02:33:37;;;;;;;3.83;2.20;;;;;;;-1.15;78.39;96094.95;1832027;78;21476;-69
2021/11/13 02:36:07;;;;;;;4.07;1.80;;;;;;;-1.22;78.92;96087.37;1832145;78;21451;-69
2021/11/13 02:38:38;;;;;;;3.17;1.70;;;;;;;-1.16;79.23;96095.37;1831670;78;21523;-69
2021/11/13 02:41:09;;;;;;;3.37;1.73;;;;;;;-1.12;79.29;96098.92;1831808;78;20989;-69
2021/11/13 02:43:38;;;;;;;3.60;1.93;;;;;;;-1.09;79.65;96102.48;1831917;78;21100;-69
2021/11/13 02:46:08;;;;;;;3.90;1.87;;;;;;;-0.98;79.69;96086.46;1832126;78;20978;-69
2021/11/13 02:48:38;;;;;;;3.60;2.20;;;;;;;-0.97;79.74;96089.08;1831930;78;21040;-69
2021/11/13 02:51:07;;;;;;;4.10;2.30;;;;;;;-1.03;79.35;96094.08;1831916;78;20969;-69
2021/11/13 02:53:34;;;;;;;2.93;1.93;;;;;;;-0.98;79.51;96089.05;1831884;78;21006;-70
2021/11/13 02:56:05;;;;;;;1.83;1.40;;;;;;;-0.93;79.71;96083.19;1831829;78;21097;-69
2021/11/13 02:58:35;;;;;;;3.00;1.60;;;;;;;-0.88;79.43;96081.63;1831772;78;21017;-69
2021/11/13 03:01:10;;;;;;;4.63;2.77;;;;;;;-1.03;78.72;96086.30;1831997;78;20985;-69
2021/11/13 03:03:39;;;;;;;5.93;3.27;;;;;;;-1.18;78.94;96094.84;1831741;78;21061;-70
2021/11/13 03:06:14;;;;;;;4.20;2.07;;;;;;;-1.31;79.17;96093.55;1831859;78;21524;-69
2021/11/13 03:08:43;;;;;;;2.80;1.60;;;;;;;-1.21;79.86;96096.01;1832035;78;21452;-70
2021/11/13 03:11:14;;;;;;;8.90;2.80;;;;;;;-1.19;79.68;96093.94;1831671;78;20963;-69
2021/11/13 03:13:45;;;;;;;2.37;1.30;;;;;;;-1.09;79.81;96095.14;1831885;78;21041;-70
2021/11/13 03:16:14;;;;;;;3.13;1.60;;;;;;;-1.10;79.26;96095.56;1831807;78;21064;-69
2021/11/13 03:18:41;;;;;;;2.80;1.60;;;;;;;-1.14;79.15;96091.52;1794964;80;21081;-70
2021/11/13 03:21:09;;;;;;;2.23;1.47;;;;;;;-1.16;79.20;96093.16;1794867;80;21019;-70
2021/11/13 03:23:42;;;;;;;3.40;1.67;;;;;;;-1.21;79.46;96091.73;1761225;80;21066;-70
2021/11/13 03:26:19;;;;;;;2.20;1.40;;;;;;;-1.16;79.86;96091.48;1794721;80;21013;-69
2021/11/13 03:28:52;;;;;;;3.07;1.80;;;;;;;-1.21;79.85;96095.62;1793761;80;21133;-70
2021/11/13 03:31:23;;;;;;;2.53;1.30;;;;;;;-1.29;80.08;96098.75;1725166;83;21003;-70
2021/11/13 03:33:48;;;;;;;2.30;1.37;;;;;;;-1.36;79.97;96098.55;1728114;83;21093;-70
2021/11/13 03:36:17;;;;;;;4.33;2.10;;;;;;;-1.37;80.58;96103.25;1728344;83;21039;-70
2021/11/13 03:38:44;;;;;;;6.30;2.40;;;;;;;-1.29;80.76;96101.34;1728330;83;21042;-70
2021/11/13 03:41:10;;;;;;;10.07;2.83;;;;;;;-1.20;80.76;96100.38;1728281;83;21010;-68
2021/11/13 03:43:38;;;;;;;3.20;2.07;;;;;;;-1.20;80.28;96100.38;1728500;83;21022;-69
2021/11/13 03:46:06;;;;;;;3.80;1.83;;;;;;;-1.15;80.47;96098.41;1728529;83;21359;-69
2021/11/13 03:48:34;;;;;;;4.63;1.57;;;;;;;-1.10;80.11;96097.28;1728268;83;20998;-70
2021/11/13 03:51:04;;;;;;;2.00;1.50;;;;;;;-1.02;80.34;96098.41;1728464;83;21567;-69
2021/11/13 03:53:30;;;;;;;2.67;1.60;;;;;;;-1.09;80.12;96103.78;1728178;83;21484;-69
2021/11/13 03:55:57;;;;;;;2.87;1.90;;;;;;;-1.20;79.40;96101.67;1755241;82;21090;-69
2021/11/13 03:58:24;;;;;;;2.90;1.43;;;;;;;-1.26;79.59;96094.97;1754890;82;21015;-69
2021/11/13 04:00:51;;;;;;;3.07;1.50;;;;;;;-1.28;79.76;96090.19;1755137;81;21549;-70
2021/11/13 04:03:18;;;;;;;3.10;1.80;;;;;;;-1.25;80.25;96094.16;1755248;82;20983;-69
2021/11/13 04:05:45;;;;;;;1.50;1.20;;;;;;;-1.22;80.19;96095.14;1754838;81;21485;-70
2021/11/13 04:08:12;;;;;;;2.37;1.47;;;;;;;-1.23;79.82;96098.56;1754879;81;21023;-69
2021/11/13 04:10:39;;;;;;;1.83;1.50;;;;;;;-1.27;80.02;96089.34;1755220;81;21011;-69
2021/11/13 04:13:06;;;;;;;4.57;1.83;;;;;;;-1.37;80.36;96099.36;1754917;82;20995;-70
2021/11/13 04:15:34;;;;;;;4.10;1.80;;;;;;;-1.36;81.12;96095.97;1754446;82;20999;-70
2021/11/13 04:18:01;;;;;;;3.93;2.40;;;;;;;-1.39;81.09;96096.25;1771219;80;21050;-69
2021/11/13 04:20:28;;;;;;;4.50;2.20;;;;;;;-1.29;81.24;96090.98;1781747;80;21568;-69
2021/11/13 04:22:54;;;;;;;4.03;2.00;;;;;;;-1.19;81.14;96087.47;1781956;80;21034;-69
2021/11/13 04:25:23;;;;;;;2.53;1.53;;;;;;;-1.15;80.94;96089.77;1782027;80;21053;-69
2021/11/13 04:27:51;;;;;;;3.33;1.73;;;;;;;-1.08;80.73;96090.45;1781761;80;21516;-69
2021/11/13 04:30:18;;;;;;;4.13;2.10;;;;;;;-1.09;80.31;96092.55;1781617;80;21022;-70
2021/11/13 04:32:47;;;;;;;3.20;1.57;;;;;;;-1.05;80.42;96085.36;1781931;80;21090;-70
2021/11/13 04:35:18;;;;;;;3.30;2.00;;;;;;;-1.06;80.40;96091.77;1781983;80;21041;-69
2021/11/13 04:37:50;;;;;;;2.50;1.60;;;;;;;-1.02;80.53;96093.65;1781819;80;21504;-70
2021/11/13 04:40:20;;;;;;;2.58;1.40;;;;;;;-1.03;80.16;96094.46;1782034;80;21058;-70
2021/11/13 04:42:47;;;;;;;2.70;1.63;;;;;;;-1.13;80.25;96088.12;1781687;80;21054;-69
2021/11/13 04:45:14;;;;;;;3.50;1.50;;;;;;;-1.12;80.44;96088.15;1781858;80;21019;-69
2021/11/13 04:47:41;;;;;;;2.50;1.40;;;;;;;-1.06;80.41;96082.29;1781609;80;21014;-69
2021/11/13 04:50:13;;;;;;;2.83;1.43;;;;;;;-1.10;79.79;96080.45;1781678;80;21539;-70
2021/11/13 04:52:40;;;;;;;3.50;1.83;;;;;;;-1.18;79.55;96078.02;1782038;80;21528;-69
2021/11/13 04:55:08;;;;;;;2.50;1.30;;;;;;;-1.21;79.95;96076.20;1781843;80;21046;-69
2021/11/13 04:57:35;;;;;;;2.03;1.10;;;;;;;-1.29;80.34;96080.21;1781560;80;21014;-69
2021/11/13 05:00:11;;;;;;;4.17;2.37;;;;;;;-1.34;80.21;96077.88;1781887;80;21027;-69
2021/11/13 05:02:38;;;;;;;2.53;1.73;;;;;;;-1.37;80.35;96084.25;1782021;80;21042;-69
2021/11/13 05:05:06;;;;;;;4.33;2.20;;;;;;;-1.34;80.59;96084.35;1781897;80;20983;-69
2021/11/13 05:07:33;;;;;;;3.10;1.77;;;;;;;-1.39;80.56;96084.61;1781961;80;21472;-70
2021/11/13 05:10:00;;;;;;;3.33;2.07;;;;;;;-1.45;81.10;96089.16;1781861;80;21042;-69
2021/11/13 05:12:27;;;;;;;4.90;2.43;;;;;;;-1.41;81.38;96084.57;1781604;80;20999;-70
2021/11/13 05:14:54;;;;;;;2.03;1.30;;;;;;;-1.36;81.17;96091.17;1781959;80;21010;-69
2021/11/13 05:17:20;;;;;;;1.53;1.00;;;;;;;-1.38;80.98;96092.44;1782090;80;21062;-70
2021/11/13 05:19:47;;;;;;;4.17;1.33;;;;;;;-1.34;80.65;96094.28;1782615;80;21050;-69
2021/11/13 05:22:14;;;;;;;1.97;1.50;;;;;;;-1.41;80.38;96091.05;1782758;80;21058;-70
2021/11/13 05:24:41;;;;;;;1.67;0.90;;;;;;;-1.45;80.34;96097.34;1783172;80;20998;-69
2021/11/13 05:27:07;;;;;;;3.63;1.50;;;;;;;-1.51;80.33;96091.55;1782635;80;21465;-70
2021/11/13 05:29:34;;;;;;;2.87;1.20;;;;;;;-1.54;80.91;96088.83;1782925;80;21015;-70
2021/11/13 05:32:04;;;;;;;5.73;2.50;;;;;;;-1.45;81.55;96085.28;1782538;80;21106;-70
2021/11/13 05:34:30;;;;;;;5.23;2.63;;;;;;;-1.41;81.29;96094.92;1783121;80;21464;-69
2021/11/13 05:36:57;;;;;;;6.63;2.97;;;;;;;-1.44;80.88;96092.63;1783009;80;21018;-69
2021/11/13 05:39:25;;;;;;;6.70;2.33;;;;;;;-1.45;80.63;96095.62;1782250;80;20998;-69
2021/11/13 05:41:53;;;;;;;1.97;1.43;;;;;;;-1.44;80.83;96096.50;1783130;80;21493;-69
2021/11/13 05:44:21;;;;;;;2.37;1.10;;;;;;;-1.46;80.70;96096.86;1782633;80;21496;-70
2021/11/13 05:46:52;;;;;;;2.60;1.30;;;;;;;-1.53;80.88;96103.55;1782937;80;21050;-70
2021/11/13 05:49:16;;;;;;;4.87;1.23;;;;;;;-1.51;81.24;96100.61;1782718;80;21489;-70
2021/11/13 05:51:43;;;;;;;2.03;1.13;;;;;;;-1.38;81.73;96104.51;1782727;80;21062;-69
2021/11/13 05:54:09;;;;;;;0.93;0.67;;;;;;;-1.35;81.42;96099.01;1782892;80;21410;-70
2021/11/13 05:56:36;;;;;;;2.33;1.27;;;;;;;-1.31;81.20;96104.77;1783040;80;21014;-69
2021/11/13 05:59:03;;;;;;;6.17;2.40;;;;;;;-1.28;80.98;96108.30;1782707;80;21003;-69
2021/11/13 06:01:31;;;;;;;7.97;3.60;;;;;;;-1.35;81.56;96112.38;1782721;80;21007;-70
2021/11/13 06:03:57;;;;;;;2.07;1.30;;;;;;;-1.36;81.43;96108.00;1783168;80;20993;-69
2021/11/13 06:06:26;;;;;;;2.40;1.30;;;;;;;-1.27;81.53;96113.94;1783057;80;20983;-70
2021/11/13 06:08:52;;;;;;;3.03;1.10;;;;;;;-1.13;81.84;96110.12;1782899;80;21011;-70
2021/11/13 06:11:19;;;;;;;2.40;0.90;;;;;;;-0.97;81.94;96110.23;1783035;80;21046;-70
2021/11/13 06:13:46;;;;;;;4.77;2.50;;;;;;;-0.87;81.60;96115.77;1782787;80;21025;-69
2021/11/13 06:16:12;;;;;;;12.67;7.80;;;;;;;-0.85;81.50;96116.25;1782696;80;20995;-69
2021/11/13 06:18:39;;;;;;;7.83;3.47;;;;;;;-0.76;81.50;96118.70;1787852;80;21108;-70
2021/11/13 06:21:07;;;;;;;6.70;4.20;;;;;;;-0.75;80.89;96123.49;1790170;80;20983;-70
2021/11/13 06:23:37;;;;;;;11.83;6.73;;;;;;;-0.81;80.74;96120.26;1790789;80;20971;-70
2021/11/13 06:26:06;;;;;;;25.13;12.33;;;;;;;-0.82;81.43;96127.58;1790672;80;21045;-70
2021/11/13 06:28:33;;;;;;;34.13;17.67;;;;;;;-0.77;81.50;96132.50;1790570;80;21049;-69
2021/11/13 06:31:00;;;;;;;30.57;12.87;;;;;;;-0.74;81.59;96128.70;1790848;80;20955;-69
2021/11/13 06:33:28;;;;;;;14.50;6.13;;;;;;;-0.63;81.46;96124.29;1790860;80;21488;-69
2021/11/13 06:35:54;;;;;;;4.10;2.40;;;;;;;-0.51;81.40;96128.59;1790834;80;20998;-70
2021/11/13 06:38:21;;;;;;;289.70;112.03;;;;;;;-0.41;81.29;96122.86;1790375;80;21050;-69
2021/11/13 06:40:48;;;;;;;11.03;5.70;;;;;;;-0.41;80.84;96133.66;1790760;80;21002;-69
2021/11/13 06:43:16;;;;;;;3.53;2.33;;;;;;;-0.35;81.22;96124.77;1790176;80;21043;-69
2021/11/13 06:45:43;;;;;;;19.33;9.10;;;;;;;-0.26;81.25;96123.34;1790677;80;21476;-69
2021/11/13 06:48:10;;;;;;;30.20;15.33;;;;;;;-0.18;81.31;96124.00;1790359;80;20991;-69
2021/11/13 06:50:37;;;;;;;11.43;4.17;;;;;;;-0.06;81.42;96125.69;1790603;80;21467;-69
2021/11/13 06:53:04;;;;;;;6.60;2.67;;;;;;;-0.03;81.18;96125.77;1790765;80;21055;-70
2021/11/13 06:55:31;;;;;;;6.00;3.30;;;;;;;0.05;81.05;96124.31;1790612;80;21022;-69
2021/11/13 06:57:58;;;;;;;28.00;16.03;;;;;;;0.06;81.00;96121.30;1790110;80;21018;-69
2021/11/13 07:00:26;;;;;;;28.03;15.43;;;;;;;0.14;81.24;96119.80;1790680;80;21019;-69
2021/11/13 07:02:53;;;;;;;25.47;14.17;;;;;;;0.26;81.34;96120.59;1789924;80;21083;-69
2021/11/13 07:05:20;;;;;;;22.93;14.50;;;;;;;0.36;81.08;96117.01;1789873;80;20974;-69
2021/11/13 07:07:47;;;;;;;21.97;12.10;;;;;;;0.45;80.92;96119.40;1790398;80;21571;-70
2021/11/13 07:10:15;;;;;;;16.80;7.70;;;;;;;0.49;80.56;96113.05;1789413;80;21018;-69
2021/11/13 07:12:44;;;;;;;18.17;8.93;;;;;;;0.46;80.19;96119.88;1789649;80;21057;-68
2021/11/13 07:15:12;;;;;;;27.47;16.20;;;;;;;0.52;80.21;96116.15;1790214;80;20954;-73
2021/11/13 07:17:39;;;;;;;27.63;15.17;;;;;;;0.61;80.46;96113.39;1789472;80;21038;-71
2021/11/13 07:20:08;;;;;;;30.13;17.83;;;;;;;0.67;80.31;96112.68;1781918;80;20991;-72
2021/11/13 07:22:36;;;;;;;26.40;13.30;;;;;;;0.70;80.32;96116.66;1778275;80;20991;-71
2021/11/13 07:25:04;;;;;;;31.07;16.57;;;;;;;0.70;80.26;96109.28;1782510;80;21473;-72
2021/11/13 07:27:30;;;;;;;34.07;18.07;;;;;;;0.73;80.35;96110.27;1782645;80;21022;-69
2021/11/13 07:29:59;;;;;;;33.30;18.03;;;;;;;0.79;80.48;96106.95;1777660;80;21053;-68
2021/11/13 07:32:28;;;;;;;35.17;18.73;;;;;;;0.89;80.55;96108.08;1769948;80;20960;-76
2021/11/13 07:34:55;;;;;;;40.73;20.93;;;;;;;1.00;80.99;96099.72;1769237;79;21072;-71
2021/11/13 07:37:24;;;;;;;47.00;25.63;;;;;;;1.16;80.95;96097.51;1767762;80;21472;-71
2021/11/13 07:39:53;;;;;;;42.90;25.53;;;;;;;1.38;80.96;96100.23;1767367;81;20999;-69
2021/11/13 07:42:20;;;;;;;42.77;19.37;;;;;;;1.55;80.72;96088.53;1767566;81;21669;-70
2021/11/13 07:44:47;;;;;;;43.23;23.43;;;;;;;1.59;80.11;96092.98;1767398;81;21041;-69
2021/11/13 07:47:14;;;;;;;42.10;21.80;;;;;;;1.55;79.89;96089.83;1777433;80;21585;-70
2021/11/13 07:49:41;;;;;;;45.47;25.63;;;;;;;1.62;79.88;96086.54;1783090;80;20980;-72
2021/11/13 07:52:09;;;;;;;39.83;24.00;;;;;;;1.67;79.84;96090.56;1782614;80;21000;-74
2021/11/13 07:54:36;;;;;;;50.10;27.30;;;;;;;1.80;80.05;96089.12;1782825;80;21024;-68
2021/11/13 07:57:05;;;;;;;44.83;21.90;;;;;;;1.88;80.10;96090.16;1782533;80;21089;-68
2021/11/13 07:59:32;;;;;;;49.63;26.33;;;;;;;1.91;79.83;96092.83;1782322;80;20988;-74
2021/11/13 08:01:59;;;;;;;47.93;25.40;;;;;;;2.01;79.72;96093.92;1782363;80;21119;-70
2021/11/13 08:04:25;;;;;;;59.77;30.20;;;;;;;2.11;79.50;96091.97;1783064;80;21016;-66
2021/11/13 08:06:52;;;;;;;54.03;28.10;;;;;;;2.21;79.57;96090.45;1782585;80;21086;-72
2021/11/13 08:09:18;;;;;;;37.83;22.30;;;;;;;2.38;79.92;96091.27;1782879;80;21005;-76
2021/11/13 08:11:45;;;;;;;47.63;25.60;;;;;;;2.54;79.47;96098.96;1764193;80;21017;-72
2021/11/13 08:14:11;;;;;;;45.93;26.47;;;;;;;2.65;79.32;96095.73;1767326;81;21017;-64
2021/11/13 08:16:38;;;;;;;42.13;21.77;;;;;;;2.77;79.03;96095.94;1768933;80;20966;-70
2021/11/13 08:19:05;;;;;;;29.73;16.03;;;;;;;2.88;78.78;96100.95;1780805;80;21057;-70
2021/11/13 08:21:32;;;;;;;34.50;18.80;;;;;;;2.99;78.25;96090.29;1780818;80;21065;-67
2021/11/13 08:23:59;;;;;;;34.30;18.90;;;;;;;3.13;78.28;96090.98;1747009;80;20940;-66
2021/11/13 08:26:26;;;;;;;31.10;17.70;;;;;;;3.31;78.34;96096.95;1760651;80;20983;-65
2021/11/13 08:28:53;;;;;;;29.07;15.53;;;;;;;3.44;78.03;96085.44;1781126;80;21536;-65
2021/11/13 08:31:20;;;;;;;27.03;15.40;;;;;;;3.56;78.20;96083.91;1757800;80;20994;-68
2021/11/13 08:33:46;;;;;;;24.97;14.90;;;;;;;3.71;78.14;96077.62;1753376;82;21005;-68
2021/11/13 08:36:13;;;;;;;27.53;15.87;;;;;;;3.88;77.87;96077.45;1753704;82;21041;-61
2021/11/13 08:38:41;;;;;;;21.70;13.00;;;;;;;4.06;77.65;96085.11;1753457;82;21056;-64
2021/11/13 08:41:07;;;;;;;22.40;10.17;;;;;;;4.17;77.24;96082.20;1765341;80;20980;-68
2021/11/13 08:43:34;;;;;;;15.93;10.57;;;;;;;4.16;76.36;96084.78;1787300;80;21392;-69
2021/11/13 08:46:01;;;;;;;16.93;9.20;;;;;;;4.11;76.05;96080.39;1787033;80;21024;-65
2021/11/13 08:48:29;;;;;;;10.73;7.07;;;;;;;4.10;75.92;96083.84;1790160;80;21074;-66
2021/11/13 08:51:01;;;;;;;15.90;9.27;;;;;;;4.02;75.51;96081.55;1751603;80;21085;-66
2021/11/13 08:53:27;;;;;;;17.47;10.87;;;;;;;3.97;75.61;96074.52;1753435;82;21018;-64
2021/11/13 08:55:54;;;;;;;11.20;7.13;;;;;;;4.01;76.11;96081.13;1752997;82;21014;-66
2021/11/13 08:58:20;;;;;;;10.90;7.47;;;;;;;4.08;76.36;96083.37;1753186;80;21074;-67
2021/11/13 09:00:52;;;;;;;15.77;10.43;;;;;;;4.26;77.27;96081.47;1752466;79;21038;-68
2021/11/13 09:03:27;;;;;;;17.00;10.30;;;;;;;4.56;77.23;96079.66;1779164;80;20986;-66
2021/11/13 09:05:56;;;;;;;13.10;8.07;;;;;;;4.85;77.09;96077.83;1766997;81;20992;-68
2021/11/13 09:08:24;;;;;;;17.90;10.70;;;;;;;5.04;75.87;96074.56;1767345;81;21628;-65
2021/11/13 09:10:53;;;;;;;25.33;11.67;;;;;;;5.16;76.00;96074.66;1750469;81;21003;-68
2021/11/13 09:13:24;;;;;;;18.07;8.80;;;;;;;5.35;75.55;96073.13;1767813;81;21058;-72
2021/11/13 09:15:51;;;;;;;15.97;9.57;;;;;;;5.59;75.40;96072.88;1767327;81;21476;-74
2021/11/13 09:18:18;;;;;;;13.27;8.27;;;;;;;5.80;75.71;96074.81;1766286;81;21030;-74
2021/11/13 09:20:45;;;;;;;12.53;7.80;;;;;;;5.93;74.98;96079.70;1755719;82;21105;-71
2021/11/13 09:23:13;;;;;;;13.43;8.53;;;;;;;5.97;73.20;96080.19;1755737;82;21042;-70
2021/11/13 09:25:44;;;;;;;18.50;9.10;;;;;;;6.14;74.42;96077.69;1754921;82;21058;-70
2021/11/13 09:28:12;;;;;;;18.37;12.37;;;;;;;6.29;73.88;96073.41;1755068;82;21018;-71
2021/11/13 09:30:40;;;;;;;15.13;10.40;;;;;;;6.43;73.62;96064.33;1756286;81;21010;-71
2021/11/13 09:33:09;;;;;;;14.67;9.83;;;;;;;6.59;73.86;96063.08;1756865;82;21007;-72
2021/11/13 09:35:37;;;;;;;13.50;8.57;;;;;;;6.71;72.72;96057.89;1756478;81;21030;-72
2021/11/13 09:38:04;;;;;;;13.93;8.97;;;;;;;6.84;72.83;96058.37;1755656;82;21113;-71
2021/11/13 09:40:31;;;;;;;18.00;10.03;;;;;;;7.03;72.32;96061.94;1755217;82;21586;-70
2021/11/13 09:43:01;;;;;;;14.83;10.43;;;;;;;7.13;71.26;96053.63;1754834;82;21536;-70
2021/11/13 09:45:29;;;;;;;15.67;10.47;;;;;;;7.30;71.35;96047.97;1754878;81;21520;-70
2021/11/13 09:48:00;;;;;;;15.93;11.17;;;;;;;7.54;70.90;96055.45;1754913;82;21034;-70
2021/11/13 09:50:32;;;;;;;15.33;10.80;;;;;;;7.75;67.33;96046.69;1755177;82;21134;-70
2021/11/13 09:52:59;;;;;;;14.43;9.80;;;;;;;8.12;69.14;96049.30;1755453;82;21052;-71
2021/11/13 09:55:27;;;;;;;13.93;10.03;;;;;;;8.47;68.86;96047.92;1756075;82;21010;-71
2021/11/13 09:57:54;;;;;;;11.40;8.93;;;;;;;8.70;65.51;96040.39;1756306;81;21053;-72
2021/11/13 10:00:26;;;;;;;14.13;8.57;;;;;;;9.00;66.40;96032.80;1756209;81;21134;-72
2021/11/13 10:02:53;;;;;;;16.80;8.40;;;;;;;9.47;66.07;96033.78;1756587;82;20975;-72
2021/11/13 10:05:20;;;;;;;9.63;6.87;;;;;;;10.10;63.88;96033.70;1755931;82;21026;-72
2021/11/13 10:07:47;;;;;;;10.53;7.80;;;;;;;10.72;59.38;96026.03;1756485;81;21015;-72
2021/11/13 10:10:34;;;;;;;14.85;10.20;;;;;;;11.29;60.02;96020.88;1756089;82;21110;-72
2021/11/13 10:13:03;;;;;;;12.68;7.60;;;;;;;11.52;59.09;96016.56;1755983;82;21010;-72
2021/11/13 10:15:39;;;;;;;9.85;6.83;;;;;;;11.94;58.57;96018.09;1756212;82;21058;-73
2021/11/13 10:18:22;;;;;;;10.60;6.62;;;;;;;12.42;50.47;96008.84;1756322;81;21039;-70
2021/11/13 10:21:06;;;;;;;7.15;5.33;;;;;;;12.69;50.37;96002.59;1777425;81;21478;-69
2021/11/13 10:23:38;;;;;;;7.55;5.67;;;;;;;12.73;46.55;96008.27;1761028;81;21515;-70
2021/11/13 10:26:22;;;;;;;8.43;5.67;;;;;;;13.34;48.65;96006.09;1829330;78;21053;-70
2021/11/13 10:28:57;;;;;;;6.72;5.08;;;;;;;13.55;45.81;96006.05;1829214;78;21001;-70
2021/11/13 10:31:35;;;;;;;9.95;5.25;;;;;;;13.48;45.69;96007.09;1829310;78;21523;-70
2021/11/13 10:34:12;;;;;;;7.22;5.62;;;;;;;13.89;44.92;96006.57;1829449;78;21037;-71
2021/11/13 10:36:43;;;;;;;8.53;6.15;;;;;;;14.30;41.77;95996.20;1802166;78;21037;-71
2021/11/13 10:39:16;;;;;;;10.45;6.28;;;;;;;14.75;43.32;95991.89;1829578;78;20989;-70
2021/11/13 10:41:52;;;;;;;8.28;6.40;;;;;;;14.81;43.82;95993.03;1829309;78;21030;-71
2021/11/13 10:44:30;;;;;;;11.55;6.90;;;;;;;14.62;41.05;95990.51;1829631;78;20997;-71
2021/11/13 10:47:19;;;;;;;8.93;7.17;;;;;;;14.38;42.51;95988.02;1829582;78;21030;-70
2021/11/13 10:49:50;;;;;;;9.73;6.70;;;;;;;14.09;41.58;96005.61;1828697;78;20998;-70
2021/11/13 10:52:19;;;;;;;8.35;6.55;;;;;;;13.95;44.87;96001.96;1829700;78;21523;-70
2021/11/13 10:54:51;;;;;;;11.00;7.03;;;;;;;14.12;42.24;95996.23;1829438;78;21037;-71
2021/11/13 10:57:28;;;;;;;10.85;7.42;;;;;;;14.59;41.46;95990.56;1829521;78;21041;-71
2021/11/13 10:59:55;;;;;;;8.03;6.70;;;;;;;15.26;42.05;95983.75;1829538;78;21061;-71
2021/11/13 11:02:23;;;;;;;10.80;7.35;;;;;;;15.76;41.21;95987.49;1829374;78;21308;-71
2021/11/13 11:04:50;;;;;;;11.48;7.37;;;;;;;15.81;37.89;95986.48;1829361;78;21460;-71
2021/11/13 11:07:23;;;;;;;8.08;6.62;;;;;;;15.78;38.60;95981.67;1829269;78;21022;-71
2021/11/13 11:10:08;;;;;;;9.23;7.15;;;;;;;15.87;37.85;95983.61;1829522;78;21045;-71
2021/11/13 11:12:38;;;;;;;9.50;7.10;;;;;;;16.14;37.61;95977.36;1829689;78;21527;-71
2021/11/13 11:15:13;;;;;;;9.58;7.22;;;;;;;16.59;37.03;95970.47;1829335;78;21496;-71
2021/11/13 11:17:46;;;;;;;9.60;7.03;;;;;;;17.07;34.93;95970.47;1829389;78;21053;-71
2021/11/13 11:20:17;;;;;;;9.75;7.10;;;;;;;17.42;34.99;95971.38;1827057;78;21088;-71
2021/11/13 11:22:46;;;;;;;13.32;10.20;;;;;;;17.91;34.45;95966.73;1826083;78;21018;-71
2021/11/13 11:25:14;;;;;;;9.65;7.28;;;;;;;18.11;35.29;95957.42;1826218;78;21476;-73
2021/11/13 11:27:44;;;;;;;10.43;7.97;;;;;;;18.17;35.04;95956.31;1826077;78;20967;-73
2021/11/13 11:30:16;;;;;;;11.18;7.58;;;;;;;18.36;32.93;95955.90;1825818;78;20978;-74
2021/11/13 11:32:48;;;;;;;7.70;6.90;;;;;;;18.85;32.99;95952.91;1826292;78;21058;-74
2021/11/13 11:35:34;;;;;;;8.30;6.93;;;;;;;19.07;32.05;95947.89;1826454;78;21033;-74
2021/11/13 11:38:06;;;;;;;9.80;7.65;;;;;;;19.24;31.30;95955.52;1825869;78;20990;-74